Glastonbury, Connecticut
Current Conditions -  °F | °C
As of 7:53 PM on Thursday 27 Nov 2014 (Local Time) from KHFD Reporting Station
Light Snow Light Snow  
Wind Chill: 29°   Ceiling: 2300
Heat Index: 34°   Visibility: 8mi
Dew Point: 27°   Wind: 6mph
Humidity: 75%   Direction: 350°N
Pressure: 30.02"   Gusts: NA
Location:  41.71°N, 72.61°W
Report Text: KHFD 280053Z 35005KT 8SM -SN OVC023 01/M03 A3002 RMK AO2 SNE09B47 SLP166 P0000 T00111028
Loading
Personal Weather Stations






























Interactive Weather Map New forecast layout! Learn more

10-Day Weather Forecast

Advertisements
Track Severe Weather on mobile